To NAV CANADA Home Page Login to a new session Search on AWWS site Feedback and Comments Disclaimer Vers la page française équivalente Tips FAQ What's new on the site To the Forecasts and Observations / NOTAM section To "File a Flight Plan" website Publications and other links Update of the User's profile FIC Telephone Numbers My Weather Data Folder Route Weather Data Regional Weather Data Local Weather Data To the Forecasts and Observations / NOTAM section
Request Generated 04/23/2014 at 14:21:04 UTC . Weather information available at that time is displayed.

METAR/TAF

GREENWOOD/NS    

SPECI CYZX 231408Z 15010G15KT 15SM BKN021 OVC100 RMK SC5AC3 WNDY HILL 15015KT=
METAR CYZX 231400Z 14008KT 15SM SCT021 OVC100 12/09 A2952 RMK SC4AC4 WNDY HILL 14013G18KT SLP996=
METAR CYZX 231300Z 10006KT 15SM FEW025 OVC100 12/08 A2952 RMK SC1AC7 WNDY HILL 14012KT SLP996=
METAR CYZX 231200Z 05006KT 15SM FEW025 OVC120 10/07 A2953 RMK SC2AC6 WNDY HILL 12011KT SLP000=

TAF CYZX 231130Z 2312/2412 10008KT P6SM SCT012 BKN120 TEMPO 2312/2315
P6SM -SHRA BKN012 OVC060
FM231500 13008G18KT P6SM SCT012 OVC040 TEMPO 2315/2324 4SM -SHRA
BR OVC012
FM240000 13008KT 3SM -RA BR OVC010 PROB30 2400/2412 3/4SM -RA BR
VV003
BECMG 2406/2408 05008KT
RMK NXT FCST BY 231800Z=
Your time UTC time
Weather data provided by Environment Canada and NAV CANADA